Latest Weather Observations for Strathalbyn

IDS60901

Issued at 5:51 pm CST Wednesday 5 August 2015 (issued every 10 minutes, with the page automatically refreshed every 10 minutes)

About weather observations | Map of Adelaide area stations | Latest observations for Adelaide area | Other Formats
Station Details ID: 024580 Name: STRATHALBYN RACECOURSE Lat: -35.28 Lon: 138.89 Height: 58.0 m
Data from the previous 72 hours. | See also: Recent months at Strathalbyn
Date/Time
CST
Tmp

°C
App
Tmp
°C
Dew
Point
°C
Rel
Hum
%
Delta-T

°C
Wind Press
QNH
hPa
Press
MSL
hPa
Rain
since
9 am
mm
Dir
 
Spd
km/h
Gust
km/h
Spd
kts
Gust
kts
05/05:30pm 9.5 5.2 7.1 85 1.1 WSW 19 28 10 15 1021.8 - 0.4
05/05:00pm 9.8 6.6 6.7 81 1.5 WSW 13 20 7 11 1021.4 - 0.4
05/04:30pm 9.9 6.0 7.2 83 1.3 SW 17 24 9 13 1021.4 - 0.4
05/04:00pm 10.4 5.1 6.9 79 1.7 SW 24 39 13 21 1021.1 - 0.2
05/03:30pm 11.0 5.8 5.7 70 2.5 SSW 22 32 12 17 1020.8 - 0.2
05/03:00pm 11.2 7.0 7.3 77 1.9 SW 19 28 10 15 1020.9 1020.9 0.2
05/02:42pm 11.4 5.2 6.1 70 2.5 SSW 28 56 15 30 1020.5 - 0.2
05/02:30pm 11.9 6.5 6.2 68 2.7 SW 24 37 13 20 1020.4 - 0.2
05/02:00pm 11.4 6.9 6.1 70 2.5 SW 19 30 10 16 1020.5 - 0.2
05/01:30pm 12.1 7.1 6.6 69 2.6 SW 22 30 12 16 1020.4 - 0.2
05/01:00pm 11.8 5.9 7.7 76 2.0 SW 28 39 15 21 1020.6 - 0.2
05/12:40pm 11.9 5.7 6.2 68 2.7 SW 28 46 15 25 1020.6 - 0.2
05/12:30pm 11.4 6.6 7.3 76 2.0 SW 22 33 12 18 1020.8 - 0.2
05/12:00pm 10.4 4.9 7.5 82 1.4 SW 26 39 14 21 1021.2 1021.2 0.2
05/11:34am 10.5 4.5 7.0 79 1.7 SSW 28 48 15 26 1021.2 - 0.0
05/11:30am 12.7 8.0 7.8 72 2.4 SSW 22 28 12 15 1021.2 - 0.0
05/11:00am 11.4 5.1 7.5 77 1.9 SSW 30 39 16 21 1021.4 - 0.0
05/10:30am 11.1 4.8 7.2 77 1.9 SSW 30 37 16 20 1021.3 - 0.0
05/10:00am 11.8 7.5 7.9 77 1.9 SW 20 32 11 17 1021.1 - 0.0
05/09:30am 10.9 6.5 7.2 78 1.8 WSW 20 30 11 16 1020.9 - 0.0
05/09:00am 10.6 7.6 7.7 82 1.4 WSW 13 20 7 11 1020.6 1020.7 0.4
05/08:30am 10.8 6.4 6.7 76 1.9 SW 19 24 10 13 1020.4 - 0.2
05/08:00am 10.1 5.5 6.3 77 1.8 WSW 20 30 11 16 1019.9 - 0.2
05/07:30am 9.6 4.6 6.3 80 1.5 W 22 32 12 17 1019.6 - 0.2
05/07:00am 9.5 4.9 6.6 82 1.4 W 20 28 11 15 1019.6 - 0.2
05/06:30am 9.8 4.5 6.7 81 1.5 W 24 33 13 18 1019.4 - 0.2
05/06:00am 10.0 5.0 6.5 79 1.6 WSW 22 33 12 18 1019.5 1019.6 0.2
05/05:30am 9.7 4.3 6.2 79 1.6 WSW 24 35 13 19 1019.2 - 0.2
05/05:00am 9.8 3.2 6.2 78 1.7 W 30 43 16 23 1019.1 - 0.2
05/04:30am 9.8 3.6 6.2 78 1.7 W 28 35 15 19 1019.1 - 0.2
05/04:00am 9.7 3.8 5.9 77 1.7 W 26 37 14 20 1019.1 - 0.2
05/03:30am 9.6 3.7 5.8 77 1.7 W 26 35 14 19 1019.4 - 0.2
05/03:00am 9.4 3.8 5.6 77 1.7 W 24 35 13 19 1019.5 1019.6 0.2
05/02:30am 9.4 4.2 5.6 77 1.7 W 22 30 12 16 1019.8 - 0.2
05/02:00am 9.4 4.3 5.8 78 1.6 W 22 32 12 17 1020.0 - 0.2
05/01:30am 9.8 5.1 6.0 77 1.8 WSW 20 30 11 16 1020.3 - 0.2
05/01:00am 9.8 4.7 5.8 76 1.8 WSW 22 32 12 17 1020.5 - 0.2
05/12:30am 10.2 5.6 6.5 78 1.7 WSW 20 30 11 16 1020.8 - 0.2
05/12:00am 10.4 5.8 6.7 78 1.7 WSW 20 30 11 16 1021.1 1021.1 0.2
 
Date/Time
CST
Tmp

°C
App
Tmp
°C
Dew
Point
°C
Rel
Hum
%
Delta-T

°C
Wind Press
QNH
hPa
Press
MSL
hPa
Rain
since
9 am
mm
Dir
 
Spd
km/h
Gust
km/h
Spd
kts
Gust
kts
04/11:30pm 11.0 5.6 7.9 81 1.5 WSW 26 37 14 20 1021.3 - 0.2
04/11:00pm 10.9 6.7 8.1 83 1.4 W 20 33 11 18 1021.1 - 0.0
04/10:30pm 10.8 6.1 7.9 82 1.4 W 22 35 12 19 1021.4 - 0.0
04/10:00pm 10.8 5.7 7.5 80 1.6 WNW 24 37 13 20 1021.6 - 0.0
04/09:30pm 10.6 5.7 6.9 78 1.8 WNW 22 32 12 17 1021.9 - 0.0
04/09:00pm 10.4 4.7 6.9 79 1.7 WNW 26 33 14 18 1021.8 1021.8 0.0
04/08:30pm 10.5 4.8 6.8 78 1.7 W 26 35 14 19 1021.9 - 0.0
04/08:00pm 10.3 5.4 6.8 79 1.7 WNW 22 37 12 20 1022.3 - 0.0
04/07:30pm 10.2 5.6 6.5 78 1.7 WNW 20 28 11 15 1022.6 - 0.0
04/07:00pm 10.1 6.4 6.1 76 1.9 WNW 15 22 8 12 1022.6 - 0.0
04/06:30pm 10.2 5.6 5.8 74 2.0 WNW 19 24 10 13 1022.8 - 0.0
04/06:00pm 10.3 5.7 5.5 72 2.2 W 19 26 10 14 1022.9 1022.9 0.0
04/05:30pm 11.0 6.9 6.4 73 2.2 W 17 24 9 13 1023.0 - 0.0
04/05:00pm 10.8 7.5 6.4 74 2.1 W 13 19 7 10 1023.1 - 0.0
04/04:30pm 11.2 6.7 6.3 72 2.3 W 19 28 10 15 1023.4 - 0.0
04/04:00pm 11.9 7.3 6.4 69 2.6 W 20 32 11 17 1023.5 - 0.0
04/03:30pm 12.0 6.6 6.3 68 2.7 W 24 35 13 19 1023.7 - 0.0
04/03:00pm 11.9 7.6 6.8 71 2.4 WNW 19 26 10 14 1023.9 1023.9 0.0
04/02:30pm 11.5 6.5 6.4 71 2.4 W 22 32 12 17 1024.1 - 0.0
04/02:00pm 12.1 7.5 6.4 68 2.7 W 20 30 11 16 1024.3 - 0.0
04/01:30pm 12.6 8.1 6.2 65 3.0 W 19 28 10 15 1024.5 - 0.0
04/01:00pm 12.0 6.3 5.0 62 3.2 W 24 37 13 20 1025.0 - 0.0
04/12:30pm 12.1 6.5 5.3 63 3.2 W 24 35 13 19 1025.4 - 0.0
04/12:00pm 12.3 6.8 6.1 66 2.9 W 24 32 13 17 1025.8 1025.8 0.0
04/11:30am 11.9 7.7 5.8 66 2.9 W 17 24 9 13 1026.3 - 0.0
04/11:00am 11.5 6.7 5.6 67 2.7 W 20 28 11 15 1026.6 - 0.0
04/10:30am 11.4 7.1 6.9 74 2.1 W 19 28 10 15 1026.8 - 0.0
04/10:00am 10.9 6.4 5.9 71 2.3 W 19 26 10 14 1027.0 - 0.0
04/09:30am 10.1 4.9 5.3 72 2.2 W 22 33 12 18 1027.0 - 0.0
04/09:00am 9.8 5.6 5.6 75 1.9 W 17 24 9 13 1027.0 1027.0 1.0
04/08:30am 9.0 4.7 5.2 77 1.7 W 17 22 9 12 1026.7 - 1.0
04/08:00am 8.0 4.0 4.8 80 1.4 W 15 20 8 11 1026.7 - 1.0
04/07:30am 6.5 2.7 3.8 83 1.2 WNW 13 17 7 9 1026.5 - 1.0
04/07:00am 6.9 2.7 4.0 82 1.2 W 15 20 8 11 1026.4 - 1.0
04/06:30am 6.6 2.7 3.6 81 1.3 W 13 17 7 9 1026.3 - 1.0
04/06:00am 7.4 3.3 4.2 80 1.4 W 15 20 8 11 1026.3 1026.3 1.0
04/05:30am 7.1 3.0 4.4 83 1.2 W 15 19 8 10 1026.3 - 1.0
04/05:00am 7.0 2.8 4.0 81 1.3 W 15 19 8 10 1026.1 - 1.0
04/04:30am 7.8 3.7 4.2 78 1.6 W 15 20 8 11 1026.1 - 1.0
04/04:00am 7.3 3.1 3.9 79 1.5 W 15 19 8 10 1026.1 - 1.0
04/03:30am 6.8 2.1 3.4 79 1.4 W 17 20 9 11 1026.2 - 1.0
04/03:00am 6.7 2.8 3.5 80 1.3 W 13 19 7 10 1026.2 1026.2 1.0
04/02:30am 7.4 3.2 3.8 78 1.5 WSW 15 20 8 11 1026.5 - 1.0
04/02:00am 6.8 2.9 3.4 79 1.4 W 13 17 7 9 1026.6 - 1.0
04/01:30am 7.4 3.2 3.8 78 1.5 W 15 19 8 10 1026.7 - 1.0
04/01:00am 7.6 3.5 4.4 80 1.4 W 15 17 8 9 1026.8 - 1.0
04/12:30am 7.1 3.3 3.9 80 1.4 W 13 17 7 9 1026.7 - 1.0
04/12:00am 6.9 2.7 3.9 81 1.3 W 15 17 8 9 1026.9 1026.9 1.0
 
Date/Time
CST
Tmp

°C
App
Tmp
°C
Dew
Point
°C
Rel
Hum
%
Delta-T

°C
Wind Press
QNH
hPa
Press
MSL
hPa
Rain
since
9 am
mm
Dir
 
Spd
km/h
Gust
km/h
Spd
kts
Gust
kts
03/11:30pm 6.7 2.9 3.7 81 1.3 W 13 17 7 9 1026.8 - 1.0
03/11:00pm 6.6 3.2 3.8 82 1.2 W 11 13 6 7 1026.8 - 1.0
03/10:30pm 6.8 3.4 3.9 82 1.2 W 11 15 6 8 1026.9 - 1.0
03/10:00pm 7.2 3.5 4.2 81 1.3 WSW 13 15 7 8 1027.0 - 1.0
03/09:30pm 7.6 3.2 4.7 82 1.3 SSW 17 20 9 11 1027.2 - 1.0
03/09:00pm 6.7 3.2 3.7 81 1.3 W 11 13 6 7 1027.1 1027.1 1.0
03/08:30pm 7.2 3.8 4.2 81 1.3 WSW 11 13 6 7 1027.0 - 1.0
03/08:00pm 7.6 3.6 4.7 82 1.3 W 15 17 8 9 1026.9 - 1.0
03/07:30pm 7.5 3.9 4.8 83 1.2 W 13 15 7 8 1026.7 - 1.0
03/07:00pm 7.5 3.9 5.0 84 1.1 W 13 15 7 8 1026.6 - 1.0
03/06:30pm 7.2 3.6 4.9 85 1.0 SSW 13 15 7 8 1026.4 - 1.0
03/06:00pm 7.7 5.4 5.5 86 1.0 SSW 7 9 4 5 1026.3 1026.3 1.0
03/05:30pm 8.7 4.6 6.0 83 1.2 SSW 17 24 9 13 1026.1 - 1.0
03/05:00pm 9.9 6.4 5.5 74 2.0 WSW 13 19 7 10 1025.9 - 1.0
03/04:30pm 10.2 6.8 6.0 75 1.9 SW 13 17 7 9 1025.6 - 1.0
03/04:00pm 9.7 5.1 6.4 80 1.5 SSW 20 26 11 14 1025.5 - 1.0
03/03:30pm 10.7 6.2 5.9 72 2.2 SW 19 24 10 13 1025.2 - 1.0
03/03:00pm 10.6 5.6 6.4 75 2.0 SSW 22 33 12 18 1024.9 1024.9 1.0
03/02:30pm 11.1 7.9 7.0 76 2.0 SW 13 19 7 10 1024.6 - 1.0
03/02:00pm 11.1 6.4 6.0 71 2.4 SW 20 30 11 16 1024.6 - 0.8
03/01:30pm 11.9 6.0 5.8 66 2.9 SW 26 39 14 21 1024.6 - 0.8
03/01:00pm 10.9 7.1 7.4 79 1.7 SW 17 28 9 15 1024.8 - 0.8
03/12:30pm 10.9 6.9 8.1 83 1.4 SW 19 28 10 15 1025.0 - 0.8
03/12:00pm 9.9 4.4 7.7 86 1.0 SW 26 35 14 19 1025.1 1025.1 0.4
03/11:49am 10.4 4.5 7.3 81 1.5 SW 28 46 15 25 1025.0 - 0.2
03/11:30am 11.8 6.7 7.7 76 2.0 SW 24 32 13 17 1025.1 - 0.2
03/11:09am 11.0 4.5 6.6 74 2.1 SSW 30 52 16 28 1025.0 - 0.2
03/11:00am 11.3 6.5 7.4 77 1.9 SW 22 32 12 17 1025.1 - 0.2
03/10:30am 11.4 7.0 7.3 76 2.0 SW 20 32 11 17 1025.1 - 0.2
03/10:00am 9.8 4.6 7.2 84 1.2 SW 24 37 13 20 1025.0 - 0.2
03/09:30am 9.7 4.4 7.0 83 1.3 W 24 39 13 21 1024.4 - 0.0
03/09:00am 10.9 6.4 6.3 73 2.1 WSW 19 28 10 15 1024.3 1024.3 0.0
03/08:30am 9.9 5.5 6.6 80 1.5 SW 19 26 10 14 1024.1 - 0.0
03/08:00am 9.7 5.5 5.9 77 1.7 WSW 17 24 9 13 1023.6 - 0.0
03/07:30am 10.1 5.0 6.1 76 1.9 W 22 35 12 19 1023.2 - 0.0
03/07:00am 9.3 5.5 5.9 79 1.6 W 15 19 8 10 1022.7 - 0.0
03/06:30am 10.2 5.7 6.2 76 1.9 WSW 19 30 10 16 1022.4 - 0.0
03/06:00am 9.6 5.0 5.6 76 1.8 WSW 19 28 10 15 1021.9 1021.9 0.0
03/05:30am 10.1 4.1 5.3 72 2.2 W 26 37 14 20 1021.6 - 0.0
03/05:00am 10.3 3.5 5.3 71 2.3 W 30 39 16 21 1021.4 - 0.0
03/04:30am 10.4 3.6 5.2 70 2.4 W 30 43 16 23 1021.1 - 0.0
03/04:00am 10.4 5.3 6.0 74 2.0 WSW 22 33 12 18 1021.2 - 0.0
03/03:30am 10.6 6.0 6.4 75 2.0 WSW 20 32 11 17 1021.3 - 0.0
03/03:00am 10.5 5.2 6.6 77 1.8 WSW 24 35 13 19 1021.3 1021.3 0.0
03/02:30am 10.4 5.8 6.7 78 1.7 WSW 20 32 11 17 1021.1 - 0.0
03/02:00am 10.7 5.4 7.0 78 1.8 WSW 24 37 13 20 1021.2 - 0.0
03/01:30am 10.8 4.7 6.6 75 2.0 WSW 28 37 15 20 1021.0 - 0.0
03/01:00am 11.2 6.3 6.7 74 2.1 WSW 22 35 12 19 1020.8 - 0.0
03/12:30am 10.8 5.8 6.6 75 2.0 W 22 35 12 19 1021.0 - 0.0
03/12:00am 11.0 5.6 6.4 73 2.2 WSW 24 35 13 19 1021.1 1021.1 0.0
 
Date/Time
CST
Tmp

°C
App
Tmp
°C
Dew
Point
°C
Rel
Hum
%
Delta-T

°C
Wind Press
QNH
hPa
Press
MSL
hPa
Rain
since
9 am
mm
Dir
 
Spd
km/h
Gust
km/h
Spd
kts
Gust
kts
02/11:30pm 11.2 5.9 6.7 74 2.1 WSW 24 39 13 21 1020.8 - 0.0
02/11:00pm 10.9 6.6 7.0 77 1.9 W 19 28 10 15 1021.0 - 0.0
02/10:30pm 11.1 6.3 5.4 68 2.6 W 20 30 11 16 1020.9 - 0.0
02/10:00pm 10.9 5.2 5.0 67 2.7 W 24 35 13 19 1020.9 - 0.0
02/09:30pm 10.8 5.6 5.3 69 2.5 W 22 32 12 17 1020.9 - 0.0
02/09:00pm 10.9 4.4 4.8 66 2.8 W 28 41 15 22 1020.9 1020.9 0.0
02/08:30pm 10.6 5.6 4.5 66 2.7 W 20 30 11 16 1020.8 - 0.0
02/08:00pm 10.7 5.3 4.4 65 2.8 W 22 32 12 17 1020.6 - 0.0
02/07:30pm 11.3 5.4 6.0 70 2.5 WSW 26 37 14 20 1020.2 - 0.0
02/07:00pm 11.6 6.1 7.5 76 2.0 W 26 37 14 20 1019.7 - 0.0
02/06:30pm 11.7 5.8 7.4 75 2.1 W 28 41 15 22 1019.5 - 0.0
02/06:00pm 11.7 5.7 7.0 73 2.2 W 28 41 15 22 1019.3 1019.4 0.0

Latest Capital City Observations: Canberra | Sydney | Melbourne | Brisbane | Adelaide | Perth | Hobart | Darwin

Other Formats:

Comma delimited format used in spreadsheet applications
http://www.bom.gov.au/fwo/IDS60901/IDS60901.94814.axf

JavaScript Object Notation format (JSON) in row-major order
http://www.bom.gov.au/fwo/IDS60901/IDS60901.94814.json